Greenwood, Indiana
Current Conditions -  °F | °C
As of 5:54 PM on Friday 28 Nov 2014 (Local Time) from KIND Reporting Station
Broken Clouds Broken Clouds  
Wind Chill: 22°   Ceiling: 22000
Heat Index: 32°   Visibility: 10mi
Dew Point: 21°   Wind: 15mph
Humidity: 64%   Direction: 150°SSE
Pressure: 30.07"   Gusts: NA
Location:  39.61°N, 86.11°W
Report Text: KIND 282254Z 15013KT 10SM FEW120 BKN220 00/M06 A3007 RMK AO2 SLP193 T00001061
Loading
Personal Weather Stations






























Interactive Weather Map New forecast layout! Learn more

10-Day Weather Forecast

Advertisements
Track Severe Weather on mobile